Time;durP1;ratioP1;P1;durP2;ratioP2;P2;SDS_P1;SDS_P2;PMS_P1;PMS_P2;Temp;Humidity;BMP_temperature;BMP_pressure;BME280_temperature;BME280_humidity;BME280_pressure;Samples;Min_cycle;Max_cycle;Signal;HPM_P1;HPM_P2
2021/01/28 00:00:52;;;;;;;0.30;0.30;;;;;;;;;;4966981;28;20286;-72
2021/01/28 00:03:19;;;;;;;0.83;0.83;;;;;;;;;;4976368;28;20224;-72
2021/01/28 00:05:46;;;;;;;0.30;0.30;;;;;;;;;;4970350;28;20245;-73
2021/01/28 00:08:12;;;;;;;0.20;0.20;;;;;;;;;;4969237;28;20197;-73
2021/01/28 00:10:38;;;;;;;0.67;0.67;;;;;;;;;;4984958;28;20197;-73
2021/01/28 00:13:07;;;;;;;0.20;0.20;;;;;;;;;;4963949;28;20507;-73
2021/01/28 00:15:34;;;;;;;0.20;0.20;;;;;;;;;;4986323;28;20281;-74
2021/01/28 00:18:00;;;;;;;0.30;0.30;;;;;;;;;;4986425;28;20197;-72
2021/01/28 00:20:27;;;;;;;0.20;0.20;;;;;;;;;;4986195;28;20228;-73
2021/01/28 00:22:53;;;;;;;0.27;0.27;;;;;;;;;;4986262;28;20272;-74
2021/01/28 00:25:21;;;;;;;0.30;0.30;;;;;;;;;;4985707;28;20455;-73
2021/01/28 00:27:47;;;;;;;0.20;0.20;;;;;;;;;;4966656;28;20252;-72
2021/01/28 00:30:16;;;;;;;0.50;0.50;;;;;;;;;;4984865;28;20209;-72
2021/01/28 00:32:41;;;;;;;0.20;0.20;;;;;;;;;;5003943;28;20497;-73
2021/01/28 00:35:09;;;;;;;0.30;0.30;;;;;;;;;;4984984;28;20209;-73
2021/01/28 00:37:35;;;;;;;0.40;0.40;;;;;;;;;;4985412;28;20194;-73
2021/01/28 00:40:02;;;;;;;0.20;0.20;;;;;;;;;;4992271;28;20499;-74
2021/01/28 00:42:28;;;;;;;0.30;0.30;;;;;;;;;;4983944;28;20268;-73
2021/01/28 00:44:57;;;;;;;0.20;0.20;;;;;;;;;;4970192;28;20465;-73
2021/01/28 00:47:24;;;;;;;0.30;0.30;;;;;;;;;;4986584;28;20292;-72
2021/01/28 00:49:50;;;;;;;0.20;0.20;;;;;;;;;;4967357;28;20201;-74
2021/01/28 00:52:17;;;;;;;0.20;0.20;;;;;;;;;;4967594;28;20222;-75
2021/01/28 00:54:43;;;;;;;0.20;0.20;;;;;;;;;;4985121;28;20202;-72
2021/01/28 00:57:10;;;;;;;0.23;0.23;;;;;;;;;;4966272;28;20197;-73
2021/01/28 00:59:36;;;;;;;0.27;0.27;;;;;;;;;;4963830;28;20216;-73
2021/01/28 01:02:02;;;;;;;0.23;0.23;;;;;;;;;;4961785;28;20214;-74
2021/01/28 01:04:30;;;;;;;0.20;0.20;;;;;;;;;;4973111;28;20198;-72
2021/01/28 01:06:57;;;;;;;0.20;0.20;;;;;;;;;;4969258;28;20290;-73
2021/01/28 01:09:23;;;;;;;0.20;0.20;;;;;;;;;;5003218;28;20210;-73
2021/01/28 01:11:50;;;;;;;0.20;0.20;;;;;;;;;;4970130;28;20212;-72
2021/01/28 01:14:16;;;;;;;0.20;0.20;;;;;;;;;;4965662;28;20520;-74
2021/01/28 01:16:43;;;;;;;0.30;0.30;;;;;;;;;;4968734;28;20244;-74
2021/01/28 01:19:09;;;;;;;0.20;0.20;;;;;;;;;;4988331;28;20205;-74
2021/01/28 01:21:36;;;;;;;1.70;1.60;;;;;;;;;;4964287;28;20396;-74
2021/01/28 01:24:03;;;;;;;0.40;0.40;;;;;;;;;;4989459;28;20233;-74
2021/01/28 01:26:29;;;;;;;0.30;0.30;;;;;;;;;;4971362;28;20224;-73
2021/01/28 01:28:55;;;;;;;0.20;0.20;;;;;;;;;;4972060;28;20400;-73
2021/01/28 01:31:22;;;;;;;0.20;0.20;;;;;;;;;;4972833;28;20205;-72
2021/01/28 01:33:48;;;;;;;0.23;0.23;;;;;;;;;;4987185;28;20233;-73
2021/01/28 01:36:14;;;;;;;0.30;0.30;;;;;;;;;;4969055;28;20221;-72
2021/01/28 01:38:41;;;;;;;1.17;1.17;;;;;;;;;;4967328;28;20207;-72
2021/01/28 01:41:08;;;;;;;0.20;0.20;;;;;;;;;;4982425;28;20280;-73
2021/01/28 01:43:34;;;;;;;0.30;0.30;;;;;;;;;;4956352;28;20206;-72
2021/01/28 01:46:02;;;;;;;0.30;0.30;;;;;;;;;;4999996;28;20401;-73
2021/01/28 01:48:29;;;;;;;0.30;0.30;;;;;;;;;;4972286;28;20202;-73
2021/01/28 01:50:57;;;;;;;0.30;0.30;;;;;;;;;;4988714;28;20205;-72
2021/01/28 01:53:26;;;;;;;0.43;0.43;;;;;;;;;;4983299;28;20206;-72
2021/01/28 01:55:55;;;;;;;0.30;0.30;;;;;;;;;;4987639;28;20237;-72
2021/01/28 01:58:26;;;;;;;0.20;0.20;;;;;;;;;;4967806;28;20301;-72
2021/01/28 02:00:53;;;;;;;0.30;0.30;;;;;;;;;;4983857;28;20206;-72
2021/01/28 02:03:19;;;;;;;0.20;0.20;;;;;;;;;;4971932;28;20574;-72
2021/01/28 02:05:48;;;;;;;0.20;0.20;;;;;;;;;;4969782;28;20273;-73
2021/01/28 02:08:14;;;;;;;0.20;0.20;;;;;;;;;;4988353;28;20208;-73
2021/01/28 02:10:40;;;;;;;0.20;0.20;;;;;;;;;;4987900;28;20297;-73
2021/01/28 02:13:07;;;;;;;0.27;0.27;;;;;;;;;;4987442;28;20206;-73
2021/01/28 02:15:34;;;;;;;0.20;0.20;;;;;;;;;;4968479;28;20206;-73
2021/01/28 02:18:00;;;;;;;0.20;0.20;;;;;;;;;;4969567;28;20198;-73
2021/01/28 02:20:34;;;;;;;0.20;0.20;;;;;;;;;;4969274;28;20277;-73
2021/01/28 02:23:06;;;;;;;0.20;0.20;;;;;;;;;;4988532;28;20240;-73
2021/01/28 02:25:34;;;;;;;0.20;0.20;;;;;;;;;;4988043;28;20209;-73
2021/01/28 02:28:01;;;;;;;0.20;0.20;;;;;;;;;;4968474;28;20425;-73
2021/01/28 02:30:29;;;;;;;0.20;0.20;;;;;;;;;;4988334;28;20202;-73
2021/01/28 02:32:55;;;;;;;0.30;0.30;;;;;;;;;;4986886;28;20197;-73
2021/01/28 02:35:22;;;;;;;0.20;0.20;;;;;;;;;;4987680;28;20455;-72
2021/01/28 02:37:49;;;;;;;0.20;0.20;;;;;;;;;;4968849;28;20209;-72
2021/01/28 02:40:17;;;;;;;0.20;0.20;;;;;;;;;;4987506;28;20480;-73
2021/01/28 02:42:45;;;;;;;0.30;0.30;;;;;;;;;;4986553;28;20244;-73
2021/01/28 02:45:15;;;;;;;0.20;0.20;;;;;;;;;;4987515;28;20248;-73
2021/01/28 02:47:42;;;;;;;0.20;0.20;;;;;;;;;;4987925;28;20292;-73
2021/01/28 02:50:09;;;;;;;0.20;0.20;;;;;;;;;;4966283;28;20209;-73
2021/01/28 02:52:35;;;;;;;0.20;0.20;;;;;;;;;;4969816;28;20210;-73
2021/01/28 02:55:02;;;;;;;0.20;0.20;;;;;;;;;;4968581;28;20206;-72
2021/01/28 02:57:28;;;;;;;0.20;0.20;;;;;;;;;;4968736;28;20200;-72
2021/01/28 02:59:55;;;;;;;0.40;0.40;;;;;;;;;;4986345;28;20267;-73
2021/01/28 03:02:21;;;;;;;0.20;0.20;;;;;;;;;;4965043;28;20202;-72
2021/01/28 03:04:48;;;;;;;0.20;0.20;;;;;;;;;;4965929;28;20237;-72
2021/01/28 03:07:15;;;;;;;0.30;0.30;;;;;;;;;;4964690;28;20219;-72
2021/01/28 03:09:42;;;;;;;0.20;0.20;;;;;;;;;;4960608;28;20206;-73
2021/01/28 03:12:09;;;;;;;0.20;0.20;;;;;;;;;;4963601;28;20198;-73
2021/01/28 03:14:36;;;;;;;0.20;0.20;;;;;;;;;;4962672;28;20228;-73
2021/01/28 03:17:03;;;;;;;0.20;0.20;;;;;;;;;;4978337;28;20568;-73
2021/01/28 03:19:29;;;;;;;0.20;0.20;;;;;;;;;;4994441;28;20315;-73
2021/01/28 03:21:55;;;;;;;0.30;0.30;;;;;;;;;;4959441;28;20209;-73
2021/01/28 03:24:22;;;;;;;0.20;0.20;;;;;;;;;;4983249;28;20240;-72
2021/01/28 03:26:48;;;;;;;0.20;0.20;;;;;;;;;;4980064;28;20248;-71
2021/01/28 03:29:14;;;;;;;0.20;0.20;;;;;;;;;;4962715;28;20248;-72
2021/01/28 03:31:41;;;;;;;0.20;0.20;;;;;;;;;;4956032;28;20461;-73
2021/01/28 03:34:08;;;;;;;1.10;1.10;;;;;;;;;;4981620;28;20213;-72
2021/01/28 03:36:35;;;;;;;0.20;0.20;;;;;;;;;;4981977;28;20225;-73
2021/01/28 03:39:01;;;;;;;0.20;0.20;;;;;;;;;;4976538;28;20393;-72
2021/01/28 03:41:28;;;;;;;0.20;0.20;;;;;;;;;;4962352;28;20210;-73
2021/01/28 03:43:54;;;;;;;0.20;0.20;;;;;;;;;;4959651;28;20206;-73
2021/01/28 03:46:20;;;;;;;0.20;0.20;;;;;;;;;;4962592;28;20406;-72
2021/01/28 03:48:46;;;;;;;0.20;0.20;;;;;;;;;;4977847;28;20294;-73
2021/01/28 03:51:14;;;;;;;0.20;0.20;;;;;;;;;;4961056;28;20214;-71
2021/01/28 03:53:40;;;;;;;0.20;0.20;;;;;;;;;;4967008;28;20212;-73
2021/01/28 03:56:07;;;;;;;0.20;0.20;;;;;;;;;;4960762;28;20199;-72
2021/01/28 03:58:33;;;;;;;0.20;0.20;;;;;;;;;;4962089;28;20199;-72
2021/01/28 04:00:59;;;;;;;0.20;0.20;;;;;;;;;;4964534;28;20198;-73
2021/01/28 04:03:26;;;;;;;1.53;1.53;;;;;;;;;;4958855;28;20206;-73
2021/01/28 04:05:52;;;;;;;0.20;0.20;;;;;;;;;;4962804;28;20297;-71
2021/01/28 04:08:19;;;;;;;0.20;0.20;;;;;;;;;;4960673;28;20203;-73
2021/01/28 04:10:46;;;;;;;0.20;0.20;;;;;;;;;;4980888;28;20205;-72
2021/01/28 04:13:12;;;;;;;0.20;0.20;;;;;;;;;;4961150;28;20222;-73
2021/01/28 04:15:38;;;;;;;0.20;0.20;;;;;;;;;;4960843;28;20214;-74
2021/01/28 04:18:05;;;;;;;0.20;0.20;;;;;;;;;;4956384;28;20214;-73
2021/01/28 04:20:33;;;;;;;0.20;0.20;;;;;;;;;;4963718;28;20501;-73
2021/01/28 04:22:59;;;;;;;0.23;0.23;;;;;;;;;;4977655;28;20227;-75
2021/01/28 04:25:27;;;;;;;0.20;0.20;;;;;;;;;;4976818;28;20205;-72
2021/01/28 04:27:54;;;;;;;0.20;0.20;;;;;;;;;;4979012;28;20250;-73
2021/01/28 04:30:22;;;;;;;0.20;0.20;;;;;;;;;;4962575;28;20240;-74
2021/01/28 04:32:48;;;;;;;0.20;0.20;;;;;;;;;;4981984;28;20202;-73
2021/01/28 04:35:14;;;;;;;0.20;0.20;;;;;;;;;;4982269;28;20224;-73
2021/01/28 04:37:40;;;;;;;0.20;0.20;;;;;;;;;;4961745;28;20204;-73
2021/01/28 04:40:07;;;;;;;0.20;0.20;;;;;;;;;;4981253;28;20470;-73
2021/01/28 04:42:38;;;;;;;0.23;0.23;;;;;;;;;;4978828;28;20405;-73
2021/01/28 04:45:05;;;;;;;0.20;0.20;;;;;;;;;;4974438;28;20232;-73
2021/01/28 04:47:32;;;;;;;0.20;0.20;;;;;;;;;;4981633;28;20260;-73
2021/01/28 04:50:00;;;;;;;0.20;0.20;;;;;;;;;;4982471;28;20202;-73
2021/01/28 04:52:27;;;;;;;0.20;0.20;;;;;;;;;;4976876;28;20278;-73
2021/01/28 04:54:54;;;;;;;0.20;0.20;;;;;;;;;;4978200;28;20205;-74
2021/01/28 04:57:21;;;;;;;0.20;0.20;;;;;;;;;;4979196;28;20239;-72
2021/01/28 04:59:50;;;;;;;0.20;0.20;;;;;;;;;;4961461;28;20210;-73
2021/01/28 05:02:17;;;;;;;0.77;0.77;;;;;;;;;;4981574;28;20202;-73
2021/01/28 05:04:46;;;;;;;0.20;0.20;;;;;;;;;;4978133;28;20237;-73
2021/01/28 05:07:21;;;;;;;0.20;0.20;;;;;;;;;;4961715;28;20222;-73
2021/01/28 05:10:00;;;;;;;0.20;0.20;;;;;;;;;;4982136;28;20216;-74
2021/01/28 05:12:26;;;;;;;0.20;0.20;;;;;;;;;;4980970;28;20407;-74
2021/01/28 05:15:09;;;;;;;0.20;0.20;;;;;;;;;;4958698;28;20275;-74
2021/01/28 05:17:37;;;;;;;0.20;0.20;;;;;;;;;;4980913;28;20220;-72
2021/01/28 05:20:04;;;;;;;0.27;0.27;;;;;;;;;;4977092;28;20207;-73
2021/01/28 05:22:32;;;;;;;0.20;0.20;;;;;;;;;;4977388;28;20285;-74
2021/01/28 05:25:00;;;;;;;0.20;0.20;;;;;;;;;;4961257;28;20218;-74
2021/01/28 05:27:29;;;;;;;1.37;1.27;;;;;;;;;;4960588;28;20272;-72
2021/01/28 05:29:57;;;;;;;0.20;0.20;;;;;;;;;;4981400;28;20202;-73
2021/01/28 05:32:34;;;;;;;0.20;0.20;;;;;;;;;;4980614;28;20209;-73
2021/01/28 05:35:15;;;;;;;0.20;0.20;;;;;;;;;;4973856;28;20317;-71
2021/01/28 05:37:41;;;;;;;0.20;0.20;;;;;;;;;;4978074;28;20198;-73
2021/01/28 05:40:10;;;;;;;0.20;0.20;;;;;;;;;;4976990;28;20210;-73
2021/01/28 05:42:36;;;;;;;0.20;0.20;;;;;;;;;;4978760;28;20213;-73
2021/01/28 05:45:18;;;;;;;0.20;0.20;;;;;;;;;;4957908;28;20201;-73
2021/01/28 05:47:45;;;;;;;0.20;0.20;;;;;;;;;;4975998;28;20232;-72
2021/01/28 05:50:16;;;;;;;0.20;0.20;;;;;;;;;;4962345;28;20210;-72
2021/01/28 05:52:42;;;;;;;0.20;0.20;;;;;;;;;;4959009;28;20273;-73
2021/01/28 05:55:10;;;;;;;0.20;0.20;;;;;;;;;;4981406;28;20204;-72
2021/01/28 05:57:40;;;;;;;0.20;0.20;;;;;;;;;;4979718;28;20242;-72
2021/01/28 06:00:10;;;;;;;0.20;0.20;;;;;;;;;;4983125;28;20204;-73
2021/01/28 06:02:41;;;;;;;0.20;0.20;;;;;;;;;;4976683;28;20426;-73
2021/01/28 06:05:22;;;;;;;0.20;0.20;;;;;;;;;;4985858;28;20213;-73
2021/01/28 06:08:01;;;;;;;0.20;0.20;;;;;;;;;;4979769;28;20226;-70
2021/01/28 06:10:36;;;;;;;0.20;0.20;;;;;;;;;;4981648;28;20214;-74
2021/01/28 06:13:07;;;;;;;0.20;0.20;;;;;;;;;;4983090;28;20213;-72
2021/01/28 06:15:41;;;;;;;0.20;0.20;;;;;;;;;;4977495;28;20485;-72
2021/01/28 06:18:37;;;;;;;0.20;0.20;;;;;;;;;;4980963;28;20485;-71
2021/01/28 06:21:20;;;;;;;0.20;0.20;;;;;;;;;;4922510;29;20208;-72
2021/01/28 06:23:56;;;;;;;0.20;0.20;;;;;;;;;;4977735;28;20239;-72
2021/01/28 06:26:32;;;;;;;0.20;0.20;;;;;;;;;;4975194;28;20226;-72
2021/01/28 06:29:06;;;;;;;0.20;0.20;;;;;;;;;;4983920;28;20534;-74
2021/01/28 06:31:38;;;;;;;0.20;0.20;;;;;;;;;;4976511;28;20209;-73
2021/01/28 06:34:14;;;;;;;0.20;0.20;;;;;;;;;;4979143;28;20211;-72
2021/01/28 06:36:50;;;;;;;0.20;0.20;;;;;;;;;;4978717;28;20197;-72
2021/01/28 06:39:19;;;;;;;0.20;0.20;;;;;;;;;;4982502;28;20210;-73
2021/01/28 06:41:52;;;;;;;0.20;0.20;;;;;;;;;;5005463;28;20400;-72
2021/01/28 06:44:20;;;;;;;0.20;0.20;;;;;;;;;;5000385;28;20202;-73
2021/01/28 06:46:50;;;;;;;0.20;0.20;;;;;;;;;;4979667;28;20265;-73
2021/01/28 06:49:20;;;;;;;0.20;0.20;;;;;;;;;;4980310;28;20225;-72
2021/01/28 06:51:50;;;;;;;0.20;0.20;;;;;;;;;;4979498;28;20325;-73
2021/01/28 06:54:21;;;;;;;0.20;0.20;;;;;;;;;;4982636;28;20295;-73
2021/01/28 06:56:50;;;;;;;0.20;0.20;;;;;;;;;;4978231;28;20237;-73
2021/01/28 06:59:20;;;;;;;0.20;0.20;;;;;;;;;;4981347;28;20202;-72
2021/01/28 07:01:50;;;;;;;0.20;0.20;;;;;;;;;;4983288;28;20245;-73
2021/01/28 07:04:19;;;;;;;0.20;0.20;;;;;;;;;;4988782;28;20206;-73
2021/01/28 07:06:48;;;;;;;0.20;0.20;;;;;;;;;;4985840;28;20517;-73
2021/01/28 07:09:19;;;;;;;0.20;0.20;;;;;;;;;;4986561;28;20197;-73
2021/01/28 07:11:46;;;;;;;0.20;0.20;;;;;;;;;;4985399;28;20204;-72
2021/01/28 07:14:13;;;;;;;0.20;0.20;;;;;;;;;;4985074;28;20202;-73
2021/01/28 07:16:41;;;;;;;0.20;0.20;;;;;;;;;;4986263;28;20385;-74
2021/01/28 07:19:11;;;;;;;0.20;0.20;;;;;;;;;;4984308;28;20207;-73
2021/01/28 07:21:38;;;;;;;0.20;0.20;;;;;;;;;;4970740;28;20217;-73
2021/01/28 07:24:07;;;;;;;0.20;0.20;;;;;;;;;;4979605;28;20256;-74
2021/01/28 07:26:47;;;;;;;0.20;0.20;;;;;;;;;;4985367;28;20536;-72
2021/01/28 07:29:32;;;;;;;0.20;0.20;;;;;;;;;;4983805;28;20435;-73
2021/01/28 07:31:59;;;;;;;0.20;0.20;;;;;;;;;;4986374;28;20477;-73
2021/01/28 07:34:26;;;;;;;0.20;0.20;;;;;;;;;;4976967;28;20206;-73
2021/01/28 07:36:58;;;;;;;0.20;0.20;;;;;;;;;;4987091;28;20198;-75
2021/01/28 07:39:35;;;;;;;0.20;0.20;;;;;;;;;;5004448;28;20390;-72
2021/01/28 07:42:02;;;;;;;0.20;0.20;;;;;;;;;;4985254;28;20205;-71
2021/01/28 07:44:42;;;;;;;0.20;0.20;;;;;;;;;;4994812;28;20208;-72
2021/01/28 07:47:30;;;;;;;0.20;0.20;;;;;;;;;;4998866;28;20231;-72
2021/01/28 07:50:17;;;;;;;0.20;0.20;;;;;;;;;;4984730;28;20419;-72
2021/01/28 07:52:43;;;;;;;0.20;0.20;;;;;;;;;;4986616;28;20206;-72
2021/01/28 07:55:24;;;;;;;0.20;0.20;;;;;;;;;;4966701;28;20305;-72
2021/01/28 07:57:50;;;;;;;0.20;0.20;;;;;;;;;;4981566;28;20194;-72
2021/01/28 08:00:18;;;;;;;0.20;0.20;;;;;;;;;;4986659;28;20513;-72
2021/01/28 08:02:44;;;;;;;0.20;0.20;;;;;;;;;;4996621;28;20211;-71
2021/01/28 08:05:17;;;;;;;0.20;0.20;;;;;;;;;;4986612;28;20202;-73
2021/01/28 08:07:44;;;;;;;0.20;0.20;;;;;;;;;;4985657;28;20229;-73
2021/01/28 08:10:21;;;;;;;0.20;0.20;;;;;;;;;;4985588;28;20315;-74
2021/01/28 08:12:50;;;;;;;0.20;0.20;;;;;;;;;;4982462;28;20435;-72
2021/01/28 08:15:17;;;;;;;0.20;0.20;;;;;;;;;;4980296;28;20202;-73
2021/01/28 08:17:44;;;;;;;0.20;0.20;;;;;;;;;;4984132;28;21007;-72
2021/01/28 08:20:20;;;;;;;0.20;0.20;;;;;;;;;;4964935;28;20491;-74
2021/01/28 08:22:50;;;;;;;0.20;0.20;;;;;;;;;;5002004;28;20290;-74
2021/01/28 08:25:16;;;;;;;0.10;0.10;;;;;;;;;;4984580;28;20210;-73
2021/01/28 08:27:43;;;;;;;0.20;0.20;;;;;;;;;;4969433;28;20227;-75
2021/01/28 08:30:13;;;;;;;0.20;0.20;;;;;;;;;;4967698;28;20206;-74
2021/01/28 08:32:40;;;;;;;0.20;0.20;;;;;;;;;;4999686;28;20199;-74
2021/01/28 08:35:08;;;;;;;0.20;0.20;;;;;;;;;;4985807;28;20207;-75
2021/01/28 08:37:36;;;;;;;0.20;0.20;;;;;;;;;;4985382;28;20224;-74
2021/01/28 08:40:04;;;;;;;0.20;0.20;;;;;;;;;;4966123;28;20283;-74
2021/01/28 08:42:31;;;;;;;0.20;0.20;;;;;;;;;;4976736;28;20444;-74
2021/01/28 08:45:12;;;;;;;0.20;0.20;;;;;;;;;;4966388;28;20379;-74
2021/01/28 08:47:38;;;;;;;0.20;0.20;;;;;;;;;;4971768;28;20230;-74
2021/01/28 08:50:06;;;;;;;0.20;0.20;;;;;;;;;;4967114;28;20221;-73
2021/01/28 08:52:34;;;;;;;0.20;0.20;;;;;;;;;;4985324;28;20236;-74
2021/01/28 08:55:08;;;;;;;0.20;0.20;;;;;;;;;;4964461;28;20208;-75
2021/01/28 08:57:34;;;;;;;0.20;0.20;;;;;;;;;;4979270;28;20477;-75
2021/01/28 09:00:03;;;;;;;0.10;0.10;;;;;;;;;;4984993;28;20202;-75
2021/01/28 09:02:30;;;;;;;0.20;0.20;;;;;;;;;;4985195;28;20281;-74
2021/01/28 09:05:00;;;;;;;0.10;0.10;;;;;;;;;;4985499;28;20209;-74
2021/01/28 09:07:48;;;;;;;0.20;0.20;;;;;;;;;;4985227;28;20214;-74
2021/01/28 09:10:23;;;;;;;0.20;0.20;;;;;;;;;;5002625;28;20204;-75
2021/01/28 09:12:50;;;;;;;0.20;0.20;;;;;;;;;;4983723;28;20310;-75
2021/01/28 09:15:18;;;;;;;0.20;0.20;;;;;;;;;;4965341;28;20202;-75
2021/01/28 09:17:45;;;;;;;0.20;0.20;;;;;;;;;;4984730;28;20206;-73
2021/01/28 09:20:20;;;;;;;0.20;0.20;;;;;;;;;;4966737;28;20276;-74
2021/01/28 09:22:49;;;;;;;0.20;0.20;;;;;;;;;;4985772;28;20279;-76
2021/01/28 09:25:16;;;;;;;0.20;0.20;;;;;;;;;;5003665;28;20227;-74
2021/01/28 09:27:44;;;;;;;0.20;0.20;;;;;;;;;;4984121;28;20232;-75
2021/01/28 09:30:19;;;;;;;0.10;0.10;;;;;;;;;;4984653;28;20270;-76
2021/01/28 09:32:46;;;;;;;0.20;0.20;;;;;;;;;;4983757;28;20229;-76
2021/01/28 09:35:14;;;;;;;0.13;0.13;;;;;;;;;;4963174;28;20246;-75
2021/01/28 09:37:41;;;;;;;0.20;0.20;;;;;;;;;;4966170;28;20199;-73
2021/01/28 09:40:22;;;;;;;0.20;0.20;;;;;;;;;;4988879;28;20201;-74
2021/01/28 09:42:50;;;;;;;0.20;0.20;;;;;;;;;;4971296;28;20241;-72
2021/01/28 09:45:20;;;;;;;0.20;0.20;;;;;;;;;;4972040;28;20209;-75
2021/01/28 09:47:49;;;;;;;0.20;0.20;;;;;;;;;;5006463;28;20230;-77
2021/01/28 09:50:16;;;;;;;0.20;0.20;;;;;;;;;;4988621;28;20558;-75
2021/01/28 09:52:43;;;;;;;0.20;0.20;;;;;;;;;;4971186;28;20388;-76
2021/01/28 09:55:11;;;;;;;0.20;0.20;;;;;;;;;;4988567;28;20219;-75
2021/01/28 09:57:38;;;;;;;0.20;0.20;;;;;;;;;;4976387;28;20238;-75
2021/01/28 10:00:08;;;;;;;0.20;0.20;;;;;;;;;;4969679;28;20204;-74
2021/01/28 10:02:36;;;;;;;0.20;0.20;;;;;;;;;;4969842;28;20502;-76
2021/01/28 10:05:03;;;;;;;0.20;0.20;;;;;;;;;;4988306;28;20203;-76
2021/01/28 10:07:30;;;;;;;0.20;0.20;;;;;;;;;;4969480;28;20483;-72
2021/01/28 10:09:57;;;;;;;0.10;0.10;;;;;;;;;;4973245;28;20474;-74
2021/01/28 10:12:26;;;;;;;0.20;0.20;;;;;;;;;;4973765;28;20506;-75
2021/01/28 10:14:52;;;;;;;0.10;0.10;;;;;;;;;;4988908;28;20205;-76
2021/01/28 10:17:20;;;;;;;0.20;0.20;;;;;;;;;;4969113;28;20434;-75
2021/01/28 10:19:47;;;;;;;0.20;0.20;;;;;;;;;;4968670;28;20208;-75
2021/01/28 10:22:14;;;;;;;0.20;0.20;;;;;;;;;;4988480;28;20564;-75
2021/01/28 10:24:40;;;;;;;0.20;0.20;;;;;;;;;;4988015;28;20242;-74
2021/01/28 10:27:07;;;;;;;0.20;0.20;;;;;;;;;;4970422;28;20225;-75
2021/01/28 10:29:34;;;;;;;0.20;0.20;;;;;;;;;;4988402;28;20322;-74
2021/01/28 10:32:01;;;;;;;0.20;0.20;;;;;;;;;;4967910;28;20289;-73
2021/01/28 10:34:30;;;;;;;0.20;0.20;;;;;;;;;;4964330;28;20323;-75
2021/01/28 10:36:56;;;;;;;0.20;0.20;;;;;;;;;;4966022;28;20198;-75
2021/01/28 10:39:23;;;;;;;0.20;0.20;;;;;;;;;;4961824;28;20211;-74
2021/01/28 10:41:50;;;;;;;0.20;0.20;;;;;;;;;;4968645;28;20232;-74
2021/01/28 10:44:17;;;;;;;0.20;0.20;;;;;;;;;;4980477;28;20203;-74
2021/01/28 10:46:44;;;;;;;0.20;0.20;;;;;;;;;;4984289;28;20419;-74
2021/01/28 10:49:10;;;;;;;0.20;0.20;;;;;;;;;;4967301;28;20269;-75
2021/01/28 10:51:38;;;;;;;0.20;0.20;;;;;;;;;;4964924;28;20218;-73
2021/01/28 10:54:05;;;;;;;0.20;0.20;;;;;;;;;;4980440;28;20211;-73
2021/01/28 10:56:32;;;;;;;0.20;0.20;;;;;;;;;;4966226;28;20399;-74
2021/01/28 10:58:59;;;;;;;0.20;0.20;;;;;;;;;;4965187;28;20479;-73
2021/01/28 11:01:25;;;;;;;0.20;0.20;;;;;;;;;;4964633;28;20408;-73
2021/01/28 11:03:52;;;;;;;0.20;0.20;;;;;;;;;;5000506;28;20219;-74
2021/01/28 11:06:18;;;;;;;0.10;0.10;;;;;;;;;;4967710;28;20207;-74
2021/01/28 11:08:46;;;;;;;0.20;0.20;;;;;;;;;;4965913;28;20448;-72
2021/01/28 11:11:14;;;;;;;0.20;0.20;;;;;;;;;;4966871;28;20211;-74
2021/01/28 11:13:41;;;;;;;0.20;0.20;;;;;;;;;;4983362;28;20407;-74
2021/01/28 11:16:07;;;;;;;0.20;0.20;;;;;;;;;;4980664;28;20202;-75
2021/01/28 11:18:34;;;;;;;0.20;0.20;;;;;;;;;;4983374;28;20248;-77
2021/01/28 11:21:00;;;;;;;0.20;0.20;;;;;;;;;;4963945;28;20213;-76
2021/01/28 11:23:27;;;;;;;0.20;0.20;;;;;;;;;;4978235;28;20342;-75
2021/01/28 11:25:55;;;;;;;0.10;0.10;;;;;;;;;;4964252;28;20206;-74
2021/01/28 11:28:21;;;;;;;0.20;0.20;;;;;;;;;;4964720;28;20259;-76
2021/01/28 11:30:48;;;;;;;0.20;0.20;;;;;;;;;;4967421;28;20239;-76
2021/01/28 11:33:15;;;;;;;0.20;0.20;;;;;;;;;;4959835;28;20207;-76
2021/01/28 11:35:42;;;;;;;0.20;0.20;;;;;;;;;;4961096;28;20244;-76
2021/01/28 11:38:09;;;;;;;0.20;0.20;;;;;;;;;;4980644;28;20207;-76
2021/01/28 11:40:36;;;;;;;0.20;0.20;;;;;;;;;;4964181;28;20234;-73
2021/01/28 11:43:04;;;;;;;0.10;0.10;;;;;;;;;;4977763;28;20232;-74
2021/01/28 11:45:32;;;;;;;0.20;0.20;;;;;;;;;;4961337;28;20204;-77
2021/01/28 11:47:59;;;;;;;0.10;0.10;;;;;;;;;;4981817;28;20431;-75
2021/01/28 11:50:25;;;;;;;0.20;0.20;;;;;;;;;;4981069;28;20203;-73
2021/01/28 11:52:52;;;;;;;0.20;0.20;;;;;;;;;;4966502;28;20209;-73
2021/01/28 11:55:19;;;;;;;0.17;0.17;;;;;;;;;;4964037;28;20281;-75
2021/01/28 11:57:46;;;;;;;0.20;0.20;;;;;;;;;;4961260;28;20280;-76
2021/01/28 12:00:15;;;;;;;0.20;0.20;;;;;;;;;;4961002;28;20201;-74
2021/01/28 12:02:42;;;;;;;0.20;0.20;;;;;;;;;;4963948;28;20199;-76
2021/01/28 12:05:09;;;;;;;0.20;0.20;;;;;;;;;;4963332;28;20333;-76
2021/01/28 12:07:36;;;;;;;0.20;0.20;;;;;;;;;;4981926;28;20241;-76
2021/01/28 12:10:02;;;;;;;0.20;0.20;;;;;;;;;;4975968;28;20247;-77
2021/01/28 12:12:29;;;;;;;0.20;0.20;;;;;;;;;;4981583;28;20230;-75
2021/01/28 12:14:55;;;;;;;0.20;0.20;;;;;;;;;;4961392;28;20207;-75
2021/01/28 12:17:22;;;;;;;0.20;0.20;;;;;;;;;;4964654;28;20497;-75
2021/01/28 12:19:49;;;;;;;0.20;0.20;;;;;;;;;;4983475;28;20279;-74
2021/01/28 12:22:16;;;;;;;0.10;0.10;;;;;;;;;;4962503;28;20207;-77
2021/01/28 12:24:42;;;;;;;0.20;0.20;;;;;;;;;;4979455;28;20215;-76
2021/01/28 12:27:09;;;;;;;0.20;0.20;;;;;;;;;;4961968;28;20231;-76
2021/01/28 12:29:35;;;;;;;0.20;0.20;;;;;;;;;;4960991;28;20250;-76
2021/01/28 12:32:02;;;;;;;0.20;0.20;;;;;;;;;;4964341;28;20294;-76
2021/01/28 12:34:29;;;;;;;0.20;0.20;;;;;;;;;;4964811;28;20203;-74
2021/01/28 12:36:55;;;;;;;0.20;0.20;;;;;;;;;;4976673;28;20254;-77
2021/01/28 12:39:22;;;;;;;0.20;0.20;;;;;;;;;;4962950;28;20199;-76
2021/01/28 12:41:48;;;;;;;0.20;0.20;;;;;;;;;;4981305;28;20279;-76
2021/01/28 12:44:15;;;;;;;0.20;0.20;;;;;;;;;;4964105;28;20255;-77
2021/01/28 12:46:41;;;;;;;0.20;0.20;;;;;;;;;;4964912;28;20237;-76
2021/01/28 12:49:08;;;;;;;0.20;0.20;;;;;;;;;;4961360;28;20348;-77
2021/01/28 12:51:35;;;;;;;0.20;0.20;;;;;;;;;;4963503;28;20210;-78
2021/01/28 12:54:01;;;;;;;0.20;0.20;;;;;;;;;;4975634;28;20436;-74
2021/01/28 12:56:28;;;;;;;0.20;0.20;;;;;;;;;;4958318;28;20215;-75
2021/01/28 12:58:54;;;;;;;0.20;0.20;;;;;;;;;;4961900;28;20278;-74
2021/01/28 13:01:20;;;;;;;0.20;0.20;;;;;;;;;;4999038;28;20206;-75
2021/01/28 13:03:47;;;;;;;0.20;0.20;;;;;;;;;;4978358;28;20270;-75
2021/01/28 13:06:13;;;;;;;0.20;0.20;;;;;;;;;;4978772;28;20283;-74
2021/01/28 13:08:42;;;;;;;0.20;0.20;;;;;;;;;;4959139;28;20228;-74
2021/01/28 13:11:09;;;;;;;0.20;0.20;;;;;;;;;;4983502;28;20222;-77
2021/01/28 13:13:36;;;;;;;0.30;0.30;;;;;;;;;;4974678;28;20199;-76
2021/01/28 13:16:03;;;;;;;0.10;0.10;;;;;;;;;;4967593;28;20198;-77
2021/01/28 13:18:30;;;;;;;0.20;0.20;;;;;;;;;;4968962;28;20327;-76
2021/01/28 13:20:56;;;;;;;0.20;0.20;;;;;;;;;;4986993;28;20199;-75
2021/01/28 13:23:22;;;;;;;0.20;0.20;;;;;;;;;;4984530;28;20564;-73
2021/01/28 13:25:50;;;;;;;0.20;0.20;;;;;;;;;;4964455;28;20276;-74
2021/01/28 13:28:17;;;;;;;0.13;0.13;;;;;;;;;;5006623;28;20275;-74
2021/01/28 13:30:43;;;;;;;0.20;0.20;;;;;;;;;;4968821;28;20278;-75
2021/01/28 13:33:09;;;;;;;0.20;0.20;;;;;;;;;;5003088;28;20213;-74
2021/01/28 13:35:36;;;;;;;0.20;0.20;;;;;;;;;;4984595;28;20547;-74
2021/01/28 13:38:03;;;;;;;0.10;0.10;;;;;;;;;;4984995;28;20232;-76
2021/01/28 13:40:30;;;;;;;0.10;0.10;;;;;;;;;;4988519;28;20239;-76
2021/01/28 13:42:57;;;;;;;0.10;0.10;;;;;;;;;;5004914;28;20266;-76
2021/01/28 13:45:25;;;;;;;0.20;0.20;;;;;;;;;;4985133;28;20405;-76
2021/01/28 13:47:51;;;;;;;0.20;0.20;;;;;;;;;;4984591;28;20217;-76
2021/01/28 13:50:19;;;;;;;0.20;0.20;;;;;;;;;;4985699;28;20202;-75
2021/01/28 13:52:45;;;;;;;0.20;0.20;;;;;;;;;;4984884;28;20226;-74
2021/01/28 13:55:13;;;;;;;0.20;0.20;;;;;;;;;;4967406;28;20232;-73
2021/01/28 13:57:39;;;;;;;0.20;0.20;;;;;;;;;;4968534;28;20519;-75
2021/01/28 14:00:08;;;;;;;0.20;0.20;;;;;;;;;;4964538;28;20217;-76
2021/01/28 14:02:35;;;;;;;0.20;0.20;;;;;;;;;;4982860;28;20280;-77
2021/01/28 14:05:01;;;;;;;0.20;0.20;;;;;;;;;;4966028;28;20210;-76
2021/01/28 14:07:28;;;;;;;0.20;0.20;;;;;;;;;;4960093;28;20637;-78
2021/01/28 14:09:55;;;;;;;0.20;0.20;;;;;;;;;;4961388;28;20336;-78
2021/01/28 14:12:21;;;;;;;0.20;0.20;;;;;;;;;;4967207;28;21217;-76
2021/01/28 14:14:48;;;;;;;0.10;0.10;;;;;;;;;;4984195;28;20207;-77
2021/01/28 14:17:16;;;;;;;0.20;0.20;;;;;;;;;;4969287;28;20198;-77
2021/01/28 14:19:42;;;;;;;0.20;0.20;;;;;;;;;;4967489;28;20199;-76
2021/01/28 14:22:09;;;;;;;0.10;0.10;;;;;;;;;;4981557;28;20199;-75
2021/01/28 14:24:36;;;;;;;0.20;0.20;;;;;;;;;;4979538;28;20264;-74
2021/01/28 14:27:03;;;;;;;0.20;0.20;;;;;;;;;;4967804;28;20224;-76
2021/01/28 14:29:29;;;;;;;0.20;0.20;;;;;;;;;;4963323;28;20207;-79
2021/01/28 14:31:56;;;;;;;0.20;0.20;;;;;;;;;;4966879;28;20206;-76
2021/01/28 14:34:24;;;;;;;0.20;0.20;;;;;;;;;;4968325;28;20282;-77
2021/01/28 14:36:50;;;;;;;0.20;0.20;;;;;;;;;;4964111;28;20199;-77
2021/01/28 14:39:16;;;;;;;0.10;0.10;;;;;;;;;;5003545;28;20223;-78
2021/01/28 14:41:43;;;;;;;0.20;0.20;;;;;;;;;;5005287;28;20212;-76
2021/01/28 14:44:10;;;;;;;0.20;0.20;;;;;;;;;;4966008;28;20269;-76
2021/01/28 14:46:36;;;;;;;0.20;0.20;;;;;;;;;;4988370;28;20209;-78
2021/01/28 14:49:03;;;;;;;0.20;0.20;;;;;;;;;;4972970;28;20381;-77